sensor_id;sensor_type;location;lat;lon;timestamp;P1;durP1;ratioP1;P2;durP2;ratioP2
23722;SDS011;12042;52.136;5.584;2022-07-09T06:14:17;30.85;;;19.70;;
23722;SDS011;12042;52.136;5.584;2022-07-09T06:16:44;25.02;;;18.67;;
23722;SDS011;12042;52.136;5.584;2022-07-09T06:19:11;32.67;;;21.00;;
23722;SDS011;12042;52.136;5.584;2022-07-09T06:21:40;27.45;;;19.90;;
23722;SDS011;12042;52.136;5.584;2022-07-09T06:24:06;28.17;;;21.35;;
23722;SDS011;12042;52.136;5.584;2022-07-09T06:26:32;23.42;;;18.10;;
23722;SDS011;12042;52.136;5.584;2022-07-09T06:28:58;21.80;;;17.13;;
23722;SDS011;12042;52.136;5.584;2022-07-09T06:31:24;19.85;;;14.95;;
23722;SDS011;12042;52.136;5.584;2022-07-09T06:33:50;20.63;;;14.52;;
23722;SDS011;12042;52.136;5.584;2022-07-09T06:36:17;18.95;;;14.38;;
23722;SDS011;12042;52.136;5.584;2022-07-09T06:38:42;18.45;;;13.73;;
23722;SDS011;12042;52.136;5.584;2022-07-09T06:41:26;19.23;;;15.15;;
23722;SDS011;12042;52.136;5.584;2022-07-09T06:43:52;16.50;;;13.63;;
23722;SDS011;12042;52.136;5.584;2022-07-09T06:46:18;18.85;;;14.60;;
23722;SDS011;12042;52.136;5.584;2022-07-09T06:48:44;26.02;;;14.73;;
23722;SDS011;12042;52.136;5.584;2022-07-09T06:51:10;21.60;;;14.32;;
23722;SDS011;12042;52.136;5.584;2022-07-09T06:53:35;18.60;;;14.88;;
23722;SDS011;12042;52.136;5.584;2022-07-09T06:56:02;23.70;;;16.88;;
23722;SDS011;12042;52.136;5.584;2022-07-09T06:58:30;20.30;;;14.82;;
23722;SDS011;12042;52.136;5.584;2022-07-09T07:00:55;16.52;;;13.68;;
23722;SDS011;12042;52.136;5.584;2022-07-09T07:03:21;18.20;;;13.65;;
23722;SDS011;12042;52.136;5.584;2022-07-09T07:05:47;16.40;;;13.18;;
23722;SDS011;12042;52.136;5.584;2022-07-09T07:08:13;16.30;;;12.68;;
23722;SDS011;12042;52.136;5.584;2022-07-09T07:10:39;17.92;;;13.20;;
23722;SDS011;12042;52.136;5.584;2022-07-09T07:13:05;17.65;;;13.25;;
23722;SDS011;12042;52.136;5.584;2022-07-09T07:15:30;17.70;;;12.90;;
23722;SDS011;12042;52.136;5.584;2022-07-09T07:17:56;21.35;;;14.43;;
23722;SDS011;12042;52.136;5.584;2022-07-09T07:20:22;18.73;;;14.77;;
23722;SDS011;12042;52.136;5.584;2022-07-09T07:22:50;17.05;;;14.30;;
23722;SDS011;12042;52.136;5.584;2022-07-09T07:25:16;18.92;;;14.02;;
23722;SDS011;12042;52.136;5.584;2022-07-09T07:27:41;15.70;;;13.70;;
23722;SDS011;12042;52.136;5.584;2022-07-09T07:30:07;17.45;;;13.90;;
23722;SDS011;12042;52.136;5.584;2022-07-09T07:32:33;18.38;;;14.10;;
23722;SDS011;12042;52.136;5.584;2022-07-09T07:34:58;18.25;;;14.60;;
23722;SDS011;12042;52.136;5.584;2022-07-09T07:37:24;14.65;;;12.52;;
23722;SDS011;12042;52.136;5.584;2022-07-09T07:39:49;17.23;;;13.18;;
23722;SDS011;12042;52.136;5.584;2022-07-09T07:42:15;15.07;;;13.57;;
23722;SDS011;12042;52.136;5.584;2022-07-09T07:44:41;14.23;;;12.73;;
23722;SDS011;12042;52.136;5.584;2022-07-09T07:47:07;14.48;;;12.98;;
23722;SDS011;12042;52.136;5.584;2022-07-09T07:49:32;15.60;;;12.93;;
23722;SDS011;12042;52.136;5.584;2022-07-09T07:51:58;15.25;;;12.32;;
23722;SDS011;12042;52.136;5.584;2022-07-09T07:54:24;12.95;;;11.65;;
23722;SDS011;12042;52.136;5.584;2022-07-09T07:56:49;12.80;;;11.60;;
23722;SDS011;12042;52.136;5.584;2022-07-09T07:59:15;11.45;;;10.35;;
23722;SDS011;12042;52.136;5.584;2022-07-09T08:01:42;11.55;;;9.13;;
23722;SDS011;12042;52.136;5.584;2022-07-09T08:04:07;8.50;;;7.80;;
23722;SDS011;12042;52.136;5.584;2022-07-09T08:06:34;9.32;;;8.32;;
23722;SDS011;12042;52.136;5.584;2022-07-09T08:09:00;12.70;;;8.95;;
23722;SDS011;12042;52.136;5.584;2022-07-09T08:11:27;8.23;;;7.50;;
23722;SDS011;12042;52.136;5.584;2022-07-09T08:13:53;9.40;;;8.50;;
23722;SDS011;12042;52.136;5.584;2022-07-09T08:16:18;8.75;;;7.85;;
23722;SDS011;12042;52.136;5.584;2022-07-09T08:18:45;8.95;;;8.20;;
23722;SDS011;12042;52.136;5.584;2022-07-09T08:21:11;9.30;;;8.23;;
23722;SDS011;12042;52.136;5.584;2022-07-09T08:23:37;9.18;;;8.27;;
23722;SDS011;12042;52.136;5.584;2022-07-09T08:26:25;9.05;;;8.15;;
23722;SDS011;12042;52.136;5.584;2022-07-09T08:28:52;9.63;;;8.40;;
23722;SDS011;12042;52.136;5.584;2022-07-09T08:31:18;10.48;;;9.50;;
23722;SDS011;12042;52.136;5.584;2022-07-09T08:33:45;9.80;;;8.90;;
23722;SDS011;12042;52.136;5.584;2022-07-09T08:36:11;10.45;;;9.40;;
23722;SDS011;12042;52.136;5.584;2022-07-09T08:38:37;9.98;;;9.00;;
23722;SDS011;12042;52.136;5.584;2022-07-09T08:41:03;9.55;;;8.68;;
23722;SDS011;12042;52.136;5.584;2022-07-09T08:43:34;11.05;;;8.30;;
23722;SDS011;12042;52.136;5.584;2022-07-09T08:46:04;8.95;;;7.50;;
23722;SDS011;12042;52.136;5.584;2022-07-09T08:48:34;12.98;;;8.85;;
23722;SDS011;12042;52.136;5.584;2022-07-09T08:51:01;9.20;;;7.82;;
23722;SDS011;12042;52.136;5.584;2022-07-09T08:53:27;9.30;;;8.07;;
23722;SDS011;12042;52.136;5.584;2022-07-09T08:55:54;9.25;;;8.35;;
23722;SDS011;12042;52.136;5.584;2022-07-09T08:58:20;8.50;;;7.70;;
23722;SDS011;12042;52.136;5.584;2022-07-09T09:00:47;7.60;;;6.90;;
23722;SDS011;12042;52.136;5.584;2022-07-09T09:03:15;6.45;;;4.88;;
23722;SDS011;12042;52.136;5.584;2022-07-09T09:05:42;3.28;;;2.97;;
23722;SDS011;12042;52.136;5.584;2022-07-09T09:08:16;3.03;;;2.08;;
23722;SDS011;12042;52.136;5.584;2022-07-09T09:10:44;2.20;;;1.95;;
23722;SDS011;12042;52.136;5.584;2022-07-09T09:13:12;1.83;;;1.75;;
23722;SDS011;12042;52.136;5.584;2022-07-09T09:15:39;2.38;;;2.17;;
23722;SDS011;12042;52.136;5.584;2022-07-09T09:18:05;5.15;;;2.33;;
23722;SDS011;12042;52.136;5.584;2022-07-09T09:20:30;2.70;;;2.60;;
23722;SDS011;12042;52.136;5.584;2022-07-09T09:22:56;3.38;;;2.45;;
23722;SDS011;12042;52.136;5.584;2022-07-09T09:25:27;2.90;;;2.63;;
23722;SDS011;12042;52.136;5.584;2022-07-09T09:27:57;2.88;;;2.50;;
23722;SDS011;12042;52.136;5.584;2022-07-09T09:30:25;2.10;;;2.00;;
23722;SDS011;12042;52.136;5.584;2022-07-09T09:32:57;2.00;;;1.90;;
23722;SDS011;12042;52.136;5.584;2022-07-09T09:35:25;1.90;;;1.80;;
23722;SDS011;12042;52.136;5.584;2022-07-09T09:37:51;1.75;;;1.65;;
23722;SDS011;12042;52.136;5.584;2022-07-09T09:40:18;4.10;;;2.05;;
23722;SDS011;12042;52.136;5.584;2022-07-09T09:42:44;2.13;;;1.80;;
23722;SDS011;12042;52.136;5.584;2022-07-09T09:45:14;3.92;;;1.75;;
23722;SDS011;12042;52.136;5.584;2022-07-09T09:47:46;2.15;;;1.80;;
23722;SDS011;12042;52.136;5.584;2022-07-09T09:50:18;4.38;;;2.05;;
23722;SDS011;12042;52.136;5.584;2022-07-09T09:52:47;2.08;;;1.98;;
23722;SDS011;12042;52.136;5.584;2022-07-09T09:55:15;3.72;;;2.50;;
23722;SDS011;12042;52.136;5.584;2022-07-09T09:57:42;2.05;;;1.95;;
23722;SDS011;12042;52.136;5.584;2022-07-09T10:00:10;1.90;;;1.80;;
23722;SDS011;12042;52.136;5.584;2022-07-09T10:02:36;2.60;;;2.40;;
23722;SDS011;12042;52.136;5.584;2022-07-09T10:05:07;2.20;;;2.00;;
23722;SDS011;12042;52.136;5.584;2022-07-09T10:07:32;2.38;;;1.58;;
23722;SDS011;12042;52.136;5.584;2022-07-09T10:09:58;2.13;;;1.40;;
23722;SDS011;12042;52.136;5.584;2022-07-09T10:12:28;1.23;;;1.05;;
23722;SDS011;12042;52.136;5.584;2022-07-09T10:14:55;1.17;;;1.17;;
23722;SDS011;12042;52.136;5.584;2022-07-09T10:17:20;0.90;;;0.90;;
23722;SDS011;12042;52.136;5.584;2022-07-09T10:19:58;1.27;;;1.17;;
23722;SDS011;12042;52.136;5.584;2022-07-09T10:22:38;1.77;;;1.02;;
23722;SDS011;12042;52.136;5.584;2022-07-09T10:25:05;2.20;;;1.30;;
23722;SDS011;12042;52.136;5.584;2022-07-09T10:27:45;3.05;;;0.80;;
23722;SDS011;12042;52.136;5.584;2022-07-09T10:33:01;1.20;;;1.10;;
23722;SDS011;12042;52.136;5.584;2022-07-09T10:35:41;1.30;;;0.98;;
23722;SDS011;12042;52.136;5.584;2022-07-09T10:38:08;2.47;;;1.25;;
23722;SDS011;12042;52.136;5.584;2022-07-09T10:40:41;1.30;;;1.10;;
23722;SDS011;12042;52.136;5.584;2022-07-09T10:43:09;0.88;;;0.88;;
23722;SDS011;12042;52.136;5.584;2022-07-09T10:45:36;1.92;;;1.08;;
23722;SDS011;12042;52.136;5.584;2022-07-09T10:48:05;2.70;;;0.90;;
23722;SDS011;12042;52.136;5.584;2022-07-09T10:50:33;1.42;;;0.82;;
23722;SDS011;12042;52.136;5.584;2022-07-09T10:53:02;1.25;;;0.90;;
23722;SDS011;12042;52.136;5.584;2022-07-09T10:55:28;1.95;;;1.00;;
23722;SDS011;12042;52.136;5.584;2022-07-09T10:57:55;1.58;;;0.90;;
23722;SDS011;12042;52.136;5.584;2022-07-09T11:00:22;0.88;;;0.70;;
23722;SDS011;12042;52.136;5.584;2022-07-09T11:02:55;0.82;;;0.70;;
23722;SDS011;12042;52.136;5.584;2022-07-09T11:05:25;3.08;;;0.80;;
23722;SDS011;12042;52.136;5.584;2022-07-09T11:07:59;3.63;;;0.88;;
23722;SDS011;12042;52.136;5.584;2022-07-09T11:10:26;1.67;;;1.00;;
23722;SDS011;12042;52.136;5.584;2022-07-09T11:12:54;0.85;;;0.85;;
23722;SDS011;12042;52.136;5.584;2022-07-09T11:15:20;1.13;;;0.90;;
23722;SDS011;12042;52.136;5.584;2022-07-09T11:20:32;3.30;;;1.00;;
23722;SDS011;12042;52.136;5.584;2022-07-09T11:23:11;1.20;;;0.70;;
23722;SDS011;12042;52.136;5.584;2022-07-09T11:25:37;2.63;;;0.88;;
23722;SDS011;12042;52.136;5.584;2022-07-09T11:28:03;1.45;;;0.80;;
23722;SDS011;12042;52.136;5.584;2022-07-09T11:30:29;1.67;;;0.80;;
23722;SDS011;12042;52.136;5.584;2022-07-09T11:32:57;1.15;;;0.73;;
23722;SDS011;12042;52.136;5.584;2022-07-09T11:35:26;2.55;;;0.70;;
23722;SDS011;12042;52.136;5.584;2022-07-09T11:37:53;1.02;;;0.60;;
23722;SDS011;12042;52.136;5.584;2022-07-09T11:40:19;1.08;;;0.60;;
23722;SDS011;12042;52.136;5.584;2022-07-09T11:42:45;2.60;;;0.70;;
23722;SDS011;12042;52.136;5.584;2022-07-09T11:45:11;1.17;;;0.63;;
23722;SDS011;12042;52.136;5.584;2022-07-09T11:47:38;0.98;;;0.60;;
23722;SDS011;12042;52.136;5.584;2022-07-09T11:50:05;1.23;;;0.82;;
23722;SDS011;12042;52.136;5.584;2022-07-09T11:52:31;1.58;;;1.00;;
23722;SDS011;12042;52.136;5.584;2022-07-09T11:55:01;2.35;;;0.70;;
23722;SDS011;12042;52.136;5.584;2022-07-09T11:57:37;2.25;;;0.68;;
23722;SDS011;12042;52.136;5.584;2022-07-09T12:00:06;1.10;;;0.70;;
23722;SDS011;12042;52.136;5.584;2022-07-09T12:02:37;1.92;;;0.60;;
23722;SDS011;12042;52.136;5.584;2022-07-09T12:05:04;1.33;;;0.65;;
23722;SDS011;12042;52.136;5.584;2022-07-09T12:07:31;2.60;;;0.60;;
23722;SDS011;12042;52.136;5.584;2022-07-09T12:09:58;1.35;;;0.60;;
23722;SDS011;12042;52.136;5.584;2022-07-09T12:12:34;1.58;;;0.60;;
23722;SDS011;12042;52.136;5.584;2022-07-09T12:15:01;2.65;;;0.75;;
23722;SDS011;12042;52.136;5.584;2022-07-09T12:17:29;1.30;;;0.68;;
23722;SDS011;12042;52.136;5.584;2022-07-09T12:19:56;2.70;;;0.90;;
23722;SDS011;12042;52.136;5.584;2022-07-09T12:22:22;2.75;;;0.90;;
23722;SDS011;12042;52.136;5.584;2022-07-09T12:24:48;1.27;;;0.88;;
23722;SDS011;12042;52.136;5.584;2022-07-09T12:27:15;1.55;;;0.90;;
23722;SDS011;12042;52.136;5.584;2022-07-09T12:29:40;1.40;;;0.70;;
23722;SDS011;12042;52.136;5.584;2022-07-09T12:32:06;2.20;;;0.70;;
23722;SDS011;12042;52.136;5.584;2022-07-09T12:34:32;1.00;;;0.70;;
23722;SDS011;12042;52.136;5.584;2022-07-09T12:36:57;3.20;;;0.88;;
23722;SDS011;12042;52.136;5.584;2022-07-09T12:39:23;3.17;;;0.80;;
23722;SDS011;12042;52.136;5.584;2022-07-09T12:41:49;3.08;;;0.98;;
23722;SDS011;12042;52.136;5.584;2022-07-09T12:44:14;2.30;;;0.73;;
23722;SDS011;12042;52.136;5.584;2022-07-09T12:46:40;1.05;;;0.70;;
23722;SDS011;12042;52.136;5.584;2022-07-09T12:49:06;2.55;;;0.80;;
23722;SDS011;12042;52.136;5.584;2022-07-09T12:51:33;1.67;;;0.88;;
23722;SDS011;12042;52.136;5.584;2022-07-09T12:53:59;1.85;;;0.77;;
23722;SDS011;12042;52.136;5.584;2022-07-09T12:56:25;2.50;;;0.80;;
23722;SDS011;12042;52.136;5.584;2022-07-09T12:58:50;2.42;;;0.90;;
23722;SDS011;12042;52.136;5.584;2022-07-09T13:01:16;2.08;;;0.82;;
23722;SDS011;12042;52.136;5.584;2022-07-09T13:03:41;2.38;;;0.65;;
23722;SDS011;12042;52.136;5.584;2022-07-09T13:06:07;1.83;;;0.80;;
23722;SDS011;12042;52.136;5.584;2022-07-09T13:08:53;2.25;;;0.60;;
23722;SDS011;12042;52.136;5.584;2022-07-09T13:11:19;0.80;;;0.57;;
23722;SDS011;12042;52.136;5.584;2022-07-09T13:13:45;2.10;;;0.70;;
23722;SDS011;12042;52.136;5.584;2022-07-09T13:16:10;2.33;;;0.90;;
23722;SDS011;12042;52.136;5.584;2022-07-09T13:18:36;2.00;;;0.90;;
23722;SDS011;12042;52.136;5.584;2022-07-09T13:21:02;3.72;;;0.80;;
23722;SDS011;12042;52.136;5.584;2022-07-09T13:23:27;2.13;;;1.00;;
23722;SDS011;12042;52.136;5.584;2022-07-09T13:25:53;2.50;;;0.70;;
23722;SDS011;12042;52.136;5.584;2022-07-09T13:28:18;1.48;;;0.80;;
23722;SDS011;12042;52.136;5.584;2022-07-09T13:30:44;0.98;;;0.73;;
23722;SDS011;12042;52.136;5.584;2022-07-09T13:33:10;1.60;;;0.70;;
23722;SDS011;12042;52.136;5.584;2022-07-09T13:35:35;5.20;;;0.98;;
23722;SDS011;12042;52.136;5.584;2022-07-09T13:38:02;2.35;;;0.70;;
23722;SDS011;12042;52.136;5.584;2022-07-09T13:40:28;3.42;;;0.77;;
23722;SDS011;12042;52.136;5.584;2022-07-09T13:42:53;2.35;;;0.88;;
23722;SDS011;12042;52.136;5.584;2022-07-09T13:45:19;3.33;;;0.95;;
23722;SDS011;12042;52.136;5.584;2022-07-09T13:47:44;3.03;;;0.93;;
23722;SDS011;12042;52.136;5.584;2022-07-09T13:50:10;1.73;;;0.90;;
23722;SDS011;12042;52.136;5.584;2022-07-09T13:52:35;2.47;;;0.90;;
23722;SDS011;12042;52.136;5.584;2022-07-09T13:55:01;1.95;;;0.90;;
23722;SDS011;12042;52.136;5.584;2022-07-09T13:57:27;1.17;;;0.80;;
23722;SDS011;12042;52.136;5.584;2022-07-09T13:59:52;2.80;;;1.30;;
23722;SDS011;12042;52.136;5.584;2022-07-09T14:02:18;4.13;;;1.10;;
23722;SDS011;12042;52.136;5.584;2022-07-09T14:04:44;3.03;;;1.10;;
23722;SDS011;12042;52.136;5.584;2022-07-09T14:07:10;1.38;;;1.08;;
23722;SDS011;12042;52.136;5.584;2022-07-09T14:09:36;2.72;;;1.23;;
23722;SDS011;12042;52.136;5.584;2022-07-09T14:12:01;2.08;;;0.90;;
23722;SDS011;12042;52.136;5.584;2022-07-09T14:14:27;2.13;;;1.10;;
23722;SDS011;12042;52.136;5.584;2022-07-09T14:16:53;2.90;;;1.10;;
23722;SDS011;12042;52.136;5.584;2022-07-09T14:19:19;3.00;;;0.95;;
23722;SDS011;12042;52.136;5.584;2022-07-09T14:21:44;2.20;;;1.15;;
23722;SDS011;12042;52.136;5.584;2022-07-09T14:24:10;4.35;;;1.20;;
23722;SDS011;12042;52.136;5.584;2022-07-09T14:26:35;2.75;;;1.05;;
23722;SDS011;12042;52.136;5.584;2022-07-09T14:29:01;4.18;;;1.02;;
23722;SDS011;12042;52.136;5.584;2022-07-09T14:31:26;5.30;;;1.00;;
23722;SDS011;12042;52.136;5.584;2022-07-09T14:33:52;1.38;;;0.93;;
23722;SDS011;12042;52.136;5.584;2022-07-09T14:36:19;2.13;;;1.17;;
23722;SDS011;12042;52.136;5.584;2022-07-09T14:38:44;4.60;;;0.82;;
23722;SDS011;12042;52.136;5.584;2022-07-09T14:41:10;1.63;;;0.90;;
23722;SDS011;12042;52.136;5.584;2022-07-09T14:43:36;3.22;;;0.88;;
23722;SDS011;12042;52.136;5.584;2022-07-09T14:46:05;1.83;;;0.90;;
23722;SDS011;12042;52.136;5.584;2022-07-09T14:48:31;4.18;;;0.93;;
23722;SDS011;12042;52.136;5.584;2022-07-09T14:50:57;2.85;;;1.00;;
23722;SDS011;12042;52.136;5.584;2022-07-09T14:53:23;2.92;;;1.17;;
23722;SDS011;12042;52.136;5.584;2022-07-09T14:55:48;3.47;;;0.98;;
23722;SDS011;12042;52.136;5.584;2022-07-09T14:58:14;4.28;;;1.05;;
23722;SDS011;12042;52.136;5.584;2022-07-09T15:00:40;4.22;;;1.15;;
23722;SDS011;12042;52.136;5.584;2022-07-09T15:03:06;2.25;;;1.00;;
23722;SDS011;12042;52.136;5.584;2022-07-09T15:05:32;3.30;;;1.00;;
23722;SDS011;12042;52.136;5.584;2022-07-09T15:07:58;2.80;;;1.00;;
23722;SDS011;12042;52.136;5.584;2022-07-09T15:10:23;1.30;;;0.77;;
23722;SDS011;12042;52.136;5.584;2022-07-09T15:12:49;5.38;;;1.00;;
23722;SDS011;12042;52.136;5.584;2022-07-09T15:15:15;5.30;;;0.95;;
23722;SDS011;12042;52.136;5.584;2022-07-09T15:17:41;2.10;;;0.98;;
23722;SDS011;12042;52.136;5.584;2022-07-09T15:20:07;4.32;;;1.20;;
23722;SDS011;12042;52.136;5.584;2022-07-09T15:22:33;3.28;;;1.08;;
23722;SDS011;12042;52.136;5.584;2022-07-09T15:24:58;1.90;;;0.80;;
23722;SDS011;12042;52.136;5.584;2022-07-09T15:27:29;1.50;;;0.98;;
23722;SDS011;12042;52.136;5.584;2022-07-09T15:29:58;1.92;;;0.70;;
23722;SDS011;12042;52.136;5.584;2022-07-09T15:32:25;3.42;;;0.80;;
23722;SDS011;12042;52.136;5.584;2022-07-09T15:34:50;2.70;;;0.90;;
23722;SDS011;12042;52.136;5.584;2022-07-09T15:37:16;3.17;;;1.00;;
23722;SDS011;12042;52.136;5.584;2022-07-09T15:39:41;3.85;;;0.98;;
23722;SDS011;12042;52.136;5.584;2022-07-09T15:42:07;3.97;;;0.90;;
23722;SDS011;12042;52.136;5.584;2022-07-09T15:44:34;1.98;;;0.80;;
23722;SDS011;12042;52.136;5.584;2022-07-09T15:47:00;3.38;;;0.90;;
23722;SDS011;12042;52.136;5.584;2022-07-09T15:49:26;7.65;;;1.00;;
23722;SDS011;12042;52.136;5.584;2022-07-09T15:51:52;1.23;;;0.70;;
23722;SDS011;12042;52.136;5.584;2022-07-09T15:54:18;1.52;;;1.00;;
23722;SDS011;12042;52.136;5.584;2022-07-09T15:56:44;4.07;;;1.30;;
23722;SDS011;12042;52.136;5.584;2022-07-09T15:59:09;1.77;;;1.10;;
23722;SDS011;12042;52.136;5.584;2022-07-09T16:01:35;2.67;;;1.00;;
23722;SDS011;12042;52.136;5.584;2022-07-09T16:04:01;4.20;;;1.38;;
23722;SDS011;12042;52.136;5.584;2022-07-09T16:06:26;2.60;;;1.00;;
23722;SDS011;12042;52.136;5.584;2022-07-09T16:08:52;4.75;;;1.50;;
23722;SDS011;12042;52.136;5.584;2022-07-09T16:11:17;2.35;;;1.00;;
23722;SDS011;12042;52.136;5.584;2022-07-09T16:14:02;2.42;;;0.90;;
23722;SDS011;12042;52.136;5.584;2022-07-09T16:16:27;2.90;;;0.70;;
23722;SDS011;12042;52.136;5.584;2022-07-09T16:18:53;4.20;;;1.23;;
23722;SDS011;12042;52.136;5.584;2022-07-09T16:21:18;4.22;;;1.20;;
23722;SDS011;12042;52.136;5.584;2022-07-09T16:23:44;5.00;;;1.40;;
23722;SDS011;12042;52.136;5.584;2022-07-09T16:26:09;3.03;;;2.30;;
23722;SDS011;12042;52.136;5.584;2022-07-09T16:28:35;5.10;;;1.30;;
23722;SDS011;12042;52.136;5.584;2022-07-09T16:31:01;3.35;;;1.45;;
23722;SDS011;12042;52.136;5.584;2022-07-09T16:33:26;2.05;;;1.17;;
23722;SDS011;12042;52.136;5.584;2022-07-09T16:35:52;2.05;;;1.20;;
23722;SDS011;12042;52.136;5.584;2022-07-09T16:38:17;4.28;;;1.23;;
23722;SDS011;12042;52.136;5.584;2022-07-09T16:40:43;2.55;;;1.52;;
23722;SDS011;12042;52.136;5.584;2022-07-09T16:43:08;4.28;;;1.25;;
23722;SDS011;12042;52.136;5.584;2022-07-09T16:45:34;2.47;;;1.20;;
23722;SDS011;12042;52.136;5.584;2022-07-09T16:47:59;4.03;;;2.25;;
23722;SDS011;12042;52.136;5.584;2022-07-09T16:50:26;3.58;;;2.50;;
23722;SDS011;12042;52.136;5.584;2022-07-09T16:52:52;2.40;;;1.27;;
23722;SDS011;12042;52.136;5.584;2022-07-09T16:55:17;1.95;;;0.85;;
23722;SDS011;12042;52.136;5.584;2022-07-09T16:57:43;4.03;;;0.98;;
23722;SDS011;12042;52.136;5.584;2022-07-09T17:00:08;1.70;;;0.98;;
23722;SDS011;12042;52.136;5.584;2022-07-09T17:02:34;2.60;;;1.05;;
23722;SDS011;12042;52.136;5.584;2022-07-09T17:05:00;2.47;;;1.00;;
23722;SDS011;12042;52.136;5.584;2022-07-09T17:07:26;4.60;;;1.20;;
23722;SDS011;12042;52.136;5.584;2022-07-09T17:09:51;3.42;;;0.88;;
23722;SDS011;12042;52.136;5.584;2022-07-09T17:12:17;2.83;;;0.90;;
23722;SDS011;12042;52.136;5.584;2022-07-09T17:14:43;5.95;;;1.23;;
23722;SDS011;12042;52.136;5.584;2022-07-09T17:17:08;3.83;;;0.93;;
23722;SDS011;12042;52.136;5.584;2022-07-09T17:19:34;2.35;;;0.90;;
23722;SDS011;12042;52.136;5.584;2022-07-09T17:21:59;4.03;;;1.42;;
23722;SDS011;12042;52.136;5.584;2022-07-09T17:24:25;3.67;;;1.00;;
23722;SDS011;12042;52.136;5.584;2022-07-09T17:26:51;4.43;;;1.17;;
23722;SDS011;12042;52.136;5.584;2022-07-09T17:29:17;2.35;;;1.02;;
23722;SDS011;12042;52.136;5.584;2022-07-09T17:31:43;3.58;;;1.10;;
23722;SDS011;12042;52.136;5.584;2022-07-09T17:34:08;2.17;;;0.90;;
23722;SDS011;12042;52.136;5.584;2022-07-09T17:36:34;3.40;;;0.95;;
23722;SDS011;12042;52.136;5.584;2022-07-09T17:39:00;6.43;;;1.38;;
23722;SDS011;12042;52.136;5.584;2022-07-09T17:41:26;3.10;;;2.45;;
23722;SDS011;12042;52.136;5.584;2022-07-09T17:43:51;3.95;;;0.90;;
23722;SDS011;12042;52.136;5.584;2022-07-09T17:46:17;3.15;;;1.02;;
23722;SDS011;12042;52.136;5.584;2022-07-09T17:48:43;2.67;;;0.93;;
23722;SDS011;12042;52.136;5.584;2022-07-09T17:51:08;5.90;;;0.93;;
23722;SDS011;12042;52.136;5.584;2022-07-09T17:53:35;1.98;;;0.85;;
23722;SDS011;12042;52.136;5.584;2022-07-09T17:56:01;3.08;;;0.80;;
23722;SDS011;12042;52.136;5.584;2022-07-09T17:58:28;3.78;;;0.90;;
23722;SDS011;12042;52.136;5.584;2022-07-09T18:00:53;2.72;;;0.82;;
23722;SDS011;12042;52.136;5.584;2022-07-09T18:03:19;4.45;;;0.85;;
23722;SDS011;12042;52.136;5.584;2022-07-09T18:05:44;2.50;;;0.70;;
23722;SDS011;12042;52.136;5.584;2022-07-09T18:08:10;4.60;;;0.95;;
23722;SDS011;12042;52.136;5.584;2022-07-09T18:10:36;3.03;;;0.80;;
23722;SDS011;12042;52.136;5.584;2022-07-09T18:13:01;4.55;;;1.02;;
23722;SDS011;12042;52.136;5.584;2022-07-09T18:15:28;3.13;;;0.68;;
23722;SDS011;12042;52.136;5.584;2022-07-09T18:17:54;3.72;;;0.80;;
23722;SDS011;12042;52.136;5.584;2022-07-09T18:20:20;3.65;;;0.85;;
23722;SDS011;12042;52.136;5.584;2022-07-09T18:22:45;2.97;;;0.93;;
23722;SDS011;12042;52.136;5.584;2022-07-09T18:25:11;1.92;;;1.02;;
23722;SDS011;12042;52.136;5.584;2022-07-09T18:27:37;1.52;;;0.70;;
23722;SDS011;12042;52.136;5.584;2022-07-09T18:30:03;1.17;;;0.65;;
23722;SDS011;12042;52.136;5.584;2022-07-09T18:32:29;3.92;;;1.40;;
23722;SDS011;12042;52.136;5.584;2022-07-09T18:34:55;2.80;;;0.90;;
23722;SDS011;12042;52.136;5.584;2022-07-09T18:37:22;3.50;;;0.90;;
23722;SDS011;12042;52.136;5.584;2022-07-09T18:39:49;1.70;;;0.90;;
23722;SDS011;12042;52.136;5.584;2022-07-09T18:42:15;3.33;;;0.95;;
23722;SDS011;12042;52.136;5.584;2022-07-09T18:44:41;5.45;;;1.05;;
23722;SDS011;12042;52.136;5.584;2022-07-09T18:47:10;8.90;;;1.88;;
23722;SDS011;12042;52.136;5.584;2022-07-09T18:49:37;3.40;;;1.15;;
23722;SDS011;12042;52.136;5.584;2022-07-09T18:52:04;1.92;;;0.90;;
23722;SDS011;12042;52.136;5.584;2022-07-09T18:54:30;4.28;;;1.17;;
23722;SDS011;12042;52.136;5.584;2022-07-09T18:56:56;4.22;;;1.17;;
23722;SDS011;12042;52.136;5.584;2022-07-09T18:59:22;4.15;;;1.00;;
23722;SDS011;12042;52.136;5.584;2022-07-09T19:01:47;3.40;;;0.80;;
23722;SDS011;12042;52.136;5.584;2022-07-09T19:04:13;5.65;;;1.30;;
23722;SDS011;12042;52.136;5.584;2022-07-09T19:06:39;2.85;;;1.10;;
23722;SDS011;12042;52.136;5.584;2022-07-09T19:09:05;2.53;;;1.08;;
23722;SDS011;12042;52.136;5.584;2022-07-09T19:11:30;2.33;;;0.90;;
23722;SDS011;12042;52.136;5.584;2022-07-09T19:13:56;1.52;;;0.70;;
23722;SDS011;12042;52.136;5.584;2022-07-09T19:16:22;2.85;;;1.10;;
23722;SDS011;12042;52.136;5.584;2022-07-09T19:18:48;4.07;;;1.10;;
23722;SDS011;12042;52.136;5.584;2022-07-09T19:21:14;4.32;;;1.00;;
23722;SDS011;12042;52.136;5.584;2022-07-09T19:23:41;4.55;;;1.33;;
23722;SDS011;12042;52.136;5.584;2022-07-09T19:26:07;3.05;;;0.82;;
23722;SDS011;12042;52.136;5.584;2022-07-09T19:28:33;2.78;;;1.08;;
23722;SDS011;12042;52.136;5.584;2022-07-09T19:30:59;3.00;;;0.95;;
23722;SDS011;12042;52.136;5.584;2022-07-09T19:33:43;3.92;;;1.08;;
23722;SDS011;12042;52.136;5.584;2022-07-09T19:36:24;2.42;;;0.90;;
23722;SDS011;12042;52.136;5.584;2022-07-09T19:38:54;1.70;;;0.80;;
23722;SDS011;12042;52.136;5.584;2022-07-09T19:41:19;5.63;;;1.10;;
23722;SDS011;12042;52.136;5.584;2022-07-09T19:43:46;3.78;;;0.73;;
23722;SDS011;12042;52.136;5.584;2022-07-09T19:46:12;2.22;;;0.77;;
23722;SDS011;12042;52.136;5.584;2022-07-09T19:48:37;2.75;;;0.77;;
23722;SDS011;12042;52.136;5.584;2022-07-09T19:51:04;2.53;;;0.70;;
23722;SDS011;12042;52.136;5.584;2022-07-09T19:53:30;4.85;;;1.00;;
23722;SDS011;12042;52.136;5.584;2022-07-09T19:55:55;2.10;;;0.70;;
23722;SDS011;12042;52.136;5.584;2022-07-09T19:58:21;3.05;;;0.82;;
23722;SDS011;12042;52.136;5.584;2022-07-09T20:00:46;2.47;;;0.60;;
23722;SDS011;12042;52.136;5.584;2022-07-09T20:03:12;2.67;;;0.88;;
23722;SDS011;12042;52.136;5.584;2022-07-09T20:05:38;1.83;;;0.80;;
23722;SDS011;12042;52.136;5.584;2022-07-09T20:08:03;4.65;;;1.02;;
23722;SDS011;12042;52.136;5.584;2022-07-09T20:10:29;2.33;;;0.70;;
23722;SDS011;12042;52.136;5.584;2022-07-09T20:12:55;3.15;;;0.95;;
23722;SDS011;12042;52.136;5.584;2022-07-09T20:15:21;1.75;;;0.70;;
23722;SDS011;12042;52.136;5.584;2022-07-09T20:17:47;6.35;;;0.75;;
23722;SDS011;12042;52.136;5.584;2022-07-09T20:20:12;3.00;;;0.80;;
23722;SDS011;12042;52.136;5.584;2022-07-09T20:22:38;2.00;;;0.80;;
23722;SDS011;12042;52.136;5.584;2022-07-09T20:25:04;4.82;;;1.35;;
23722;SDS011;12042;52.136;5.584;2022-07-09T20:27:30;2.38;;;0.70;;
23722;SDS011;12042;52.136;5.584;2022-07-09T20:29:56;1.63;;;0.60;;
23722;SDS011;12042;52.136;5.584;2022-07-09T20:32:22;3.15;;;0.88;;
23722;SDS011;12042;52.136;5.584;2022-07-09T20:34:47;1.95;;;0.57;;
23722;SDS011;12042;52.136;5.584;2022-07-09T20:37:13;2.47;;;0.82;;
23722;SDS011;12042;52.136;5.584;2022-07-09T20:39:39;1.92;;;0.77;;
23722;SDS011;12042;52.136;5.584;2022-07-09T20:42:05;3.47;;;1.20;;
23722;SDS011;12042;52.136;5.584;2022-07-09T20:44:31;6.43;;;1.10;;
23722;SDS011;12042;52.136;5.584;2022-07-09T20:46:56;1.08;;;0.80;;
23722;SDS011;12042;52.136;5.584;2022-07-09T20:49:22;4.10;;;1.00;;
23722;SDS011;12042;52.136;5.584;2022-07-09T20:51:47;4.18;;;0.93;;
23722;SDS011;12042;52.136;5.584;2022-07-09T20:54:13;3.45;;;1.23;;
23722;SDS011;12042;52.136;5.584;2022-07-09T20:56:39;4.95;;;1.10;;
23722;SDS011;12042;52.136;5.584;2022-07-09T20:59:06;2.13;;;1.00;;